sensor_id;sensor_type;location;lat;lon;timestamp;P1;durP1;ratioP1;P2;durP2;ratioP2
11735;SDS011;5924;51.398;7.088;2024-01-11T00:00:58;63.23;;;20.23;;
11735;SDS011;5924;51.398;7.088;2024-01-11T00:03:24;60.00;;;23.20;;
11735;SDS011;5924;51.398;7.088;2024-01-11T00:05:50;53.47;;;22.47;;
11735;SDS011;5924;51.398;7.088;2024-01-11T00:08:16;53.27;;;21.57;;
11735;SDS011;5924;51.398;7.088;2024-01-11T00:10:41;56.60;;;20.57;;
11735;SDS011;5924;51.398;7.088;2024-01-11T00:13:07;61.00;;;21.13;;
11735;SDS011;5924;51.398;7.088;2024-01-11T00:15:32;49.33;;;21.20;;
11735;SDS011;5924;51.398;7.088;2024-01-11T00:17:58;57.30;;;21.60;;
11735;SDS011;5924;51.398;7.088;2024-01-11T00:20:24;54.27;;;20.10;;
11735;SDS011;5924;51.398;7.088;2024-01-11T00:22:49;62.30;;;21.30;;
11735;SDS011;5924;51.398;7.088;2024-01-11T00:25:15;56.40;;;20.37;;
11735;SDS011;5924;51.398;7.088;2024-01-11T00:27:41;47.80;;;19.83;;
11735;SDS011;5924;51.398;7.088;2024-01-11T00:30:07;55.03;;;20.00;;
11735;SDS011;5924;51.398;7.088;2024-01-11T00:32:32;59.20;;;19.00;;
11735;SDS011;5924;51.398;7.088;2024-01-11T00:34:58;53.17;;;19.53;;
11735;SDS011;5924;51.398;7.088;2024-01-11T00:37:24;51.60;;;20.07;;
11735;SDS011;5924;51.398;7.088;2024-01-11T00:39:50;70.40;;;22.27;;
11735;SDS011;5924;51.398;7.088;2024-01-11T00:42:16;45.10;;;19.07;;
11735;SDS011;5924;51.398;7.088;2024-01-11T00:44:41;67.57;;;23.47;;
11735;SDS011;5924;51.398;7.088;2024-01-11T00:47:07;48.33;;;18.77;;
11735;SDS011;5924;51.398;7.088;2024-01-11T00:49:33;44.60;;;20.03;;
11735;SDS011;5924;51.398;7.088;2024-01-11T00:51:58;47.50;;;19.23;;
11735;SDS011;5924;51.398;7.088;2024-01-11T00:54:24;46.53;;;20.20;;
11735;SDS011;5924;51.398;7.088;2024-01-11T00:56:50;48.83;;;18.33;;
11735;SDS011;5924;51.398;7.088;2024-01-11T00:59:15;44.03;;;19.43;;
11735;SDS011;5924;51.398;7.088;2024-01-11T01:01:46;54.43;;;21.23;;
11735;SDS011;5924;51.398;7.088;2024-01-11T01:04:15;64.78;;;20.75;;
11735;SDS011;5924;51.398;7.088;2024-01-11T01:06:41;41.53;;;19.03;;
11735;SDS011;5924;51.398;7.088;2024-01-11T01:09:07;49.33;;;18.83;;
11735;SDS011;5924;51.398;7.088;2024-01-11T01:11:33;59.70;;;20.50;;
11735;SDS011;5924;51.398;7.088;2024-01-11T01:13:59;55.73;;;20.57;;
11735;SDS011;5924;51.398;7.088;2024-01-11T01:16:24;47.20;;;19.57;;
11735;SDS011;5924;51.398;7.088;2024-01-11T01:18:50;52.13;;;20.60;;
11735;SDS011;5924;51.398;7.088;2024-01-11T01:21:16;46.93;;;17.80;;
11735;SDS011;5924;51.398;7.088;2024-01-11T01:23:41;43.20;;;17.80;;
11735;SDS011;5924;51.398;7.088;2024-01-11T01:26:07;57.83;;;18.70;;
11735;SDS011;5924;51.398;7.088;2024-01-11T01:28:32;48.47;;;19.27;;
11735;SDS011;5924;51.398;7.088;2024-01-11T01:30:58;55.80;;;20.37;;
11735;SDS011;5924;51.398;7.088;2024-01-11T01:33:24;42.80;;;20.40;;
11735;SDS011;5924;51.398;7.088;2024-01-11T01:35:49;52.10;;;20.90;;
11735;SDS011;5924;51.398;7.088;2024-01-11T01:38:15;61.27;;;21.00;;
11735;SDS011;5924;51.398;7.088;2024-01-11T01:40:42;63.50;;;21.00;;
11735;SDS011;5924;51.398;7.088;2024-01-11T01:43:09;51.80;;;18.70;;
11735;SDS011;5924;51.398;7.088;2024-01-11T01:45:35;49.47;;;20.52;;
11735;SDS011;5924;51.398;7.088;2024-01-11T01:48:01;42.83;;;19.83;;
11735;SDS011;5924;51.398;7.088;2024-01-11T01:50:27;45.67;;;19.90;;
11735;SDS011;5924;51.398;7.088;2024-01-11T01:52:53;44.97;;;19.10;;
11735;SDS011;5924;51.398;7.088;2024-01-11T01:55:20;58.22;;;19.25;;
11735;SDS011;5924;51.398;7.088;2024-01-11T01:57:48;55.50;;;20.50;;
11735;SDS011;5924;51.398;7.088;2024-01-11T02:00:15;45.30;;;18.75;;
11735;SDS011;5924;51.398;7.088;2024-01-11T02:02:42;39.35;;;16.63;;
11735;SDS011;5924;51.398;7.088;2024-01-11T02:05:10;41.25;;;18.77;;
11735;SDS011;5924;51.398;7.088;2024-01-11T02:07:37;57.15;;;20.20;;
11735;SDS011;5924;51.398;7.088;2024-01-11T02:10:04;45.65;;;19.52;;
11735;SDS011;5924;51.398;7.088;2024-01-11T02:12:31;42.00;;;19.92;;
11735;SDS011;5924;51.398;7.088;2024-01-11T02:14:58;50.10;;;18.77;;
11735;SDS011;5924;51.398;7.088;2024-01-11T02:17:25;44.85;;;17.75;;
11735;SDS011;5924;51.398;7.088;2024-01-11T02:19:50;40.10;;;17.93;;
11735;SDS011;5924;51.398;7.088;2024-01-11T02:22:20;50.10;;;18.00;;
11735;SDS011;5924;51.398;7.088;2024-01-11T02:24:49;42.38;;;17.92;;
11735;SDS011;5924;51.398;7.088;2024-01-11T02:27:15;38.07;;;17.60;;
11735;SDS011;5924;51.398;7.088;2024-01-11T02:29:40;46.37;;;18.30;;
11735;SDS011;5924;51.398;7.088;2024-01-11T02:32:06;52.10;;;19.73;;
11735;SDS011;5924;51.398;7.088;2024-01-11T02:34:33;54.75;;;19.73;;
11735;SDS011;5924;51.398;7.088;2024-01-11T02:36:59;53.97;;;20.05;;
11735;SDS011;5924;51.398;7.088;2024-01-11T02:39:25;50.43;;;19.93;;
11735;SDS011;5924;51.398;7.088;2024-01-11T02:41:51;48.70;;;18.75;;
11735;SDS011;5924;51.398;7.088;2024-01-11T02:44:18;43.90;;;19.13;;
11735;SDS011;5924;51.398;7.088;2024-01-11T02:46:44;38.70;;;18.13;;
11735;SDS011;5924;51.398;7.088;2024-01-11T02:49:09;48.30;;;19.30;;
11735;SDS011;5924;51.398;7.088;2024-01-11T02:51:35;46.30;;;20.20;;
11735;SDS011;5924;51.398;7.088;2024-01-11T02:54:01;49.33;;;18.73;;
11735;SDS011;5924;51.398;7.088;2024-01-11T02:56:27;47.87;;;19.40;;
11735;SDS011;5924;51.398;7.088;2024-01-11T02:58:52;45.23;;;18.13;;
11735;SDS011;5924;51.398;7.088;2024-01-11T03:01:18;52.37;;;19.10;;
11735;SDS011;5924;51.398;7.088;2024-01-11T03:03:44;57.50;;;19.40;;
11735;SDS011;5924;51.398;7.088;2024-01-11T03:06:09;45.10;;;18.40;;
11735;SDS011;5924;51.398;7.088;2024-01-11T03:08:35;42.73;;;18.07;;
11735;SDS011;5924;51.398;7.088;2024-01-11T03:11:01;48.13;;;18.97;;
11735;SDS011;5924;51.398;7.088;2024-01-11T03:13:27;43.83;;;18.97;;
11735;SDS011;5924;51.398;7.088;2024-01-11T03:15:52;46.70;;;18.60;;
11735;SDS011;5924;51.398;7.088;2024-01-11T03:18:18;53.83;;;18.93;;
11735;SDS011;5924;51.398;7.088;2024-01-11T03:20:44;48.20;;;21.00;;
11735;SDS011;5924;51.398;7.088;2024-01-11T03:23:09;43.83;;;18.77;;
11735;SDS011;5924;51.398;7.088;2024-01-11T03:25:35;46.33;;;18.80;;
11735;SDS011;5924;51.398;7.088;2024-01-11T03:28:01;47.10;;;18.63;;
11735;SDS011;5924;51.398;7.088;2024-01-11T03:30:26;51.43;;;19.07;;
11735;SDS011;5924;51.398;7.088;2024-01-11T03:32:53;51.15;;;20.20;;
11735;SDS011;5924;51.398;7.088;2024-01-11T03:35:18;44.20;;;18.77;;
11735;SDS011;5924;51.398;7.088;2024-01-11T03:37:45;39.28;;;18.25;;
11735;SDS011;5924;51.398;7.088;2024-01-11T03:40:10;38.40;;;17.50;;
11735;SDS011;5924;51.398;7.088;2024-01-11T03:42:36;54.22;;;19.00;;
11735;SDS011;5924;51.398;7.088;2024-01-11T03:45:03;50.27;;;19.60;;
11735;SDS011;5924;51.398;7.088;2024-01-11T03:47:29;53.10;;;20.17;;
11735;SDS011;5924;51.398;7.088;2024-01-11T03:49:55;47.33;;;20.83;;
11735;SDS011;5924;51.398;7.088;2024-01-11T03:52:20;55.80;;;20.20;;
11735;SDS011;5924;51.398;7.088;2024-01-11T03:54:46;46.40;;;18.30;;
11735;SDS011;5924;51.398;7.088;2024-01-11T03:57:12;49.30;;;19.90;;
11735;SDS011;5924;51.398;7.088;2024-01-11T03:59:37;61.40;;;19.87;;
11735;SDS011;5924;51.398;7.088;2024-01-11T04:02:03;55.00;;;20.43;;
11735;SDS011;5924;51.398;7.088;2024-01-11T04:04:29;56.07;;;20.30;;
11735;SDS011;5924;51.398;7.088;2024-01-11T04:06:54;47.50;;;20.33;;
11735;SDS011;5924;51.398;7.088;2024-01-11T04:09:20;54.37;;;20.33;;
11735;SDS011;5924;51.398;7.088;2024-01-11T04:11:46;48.53;;;20.37;;
11735;SDS011;5924;51.398;7.088;2024-01-11T04:14:11;55.43;;;21.50;;
11735;SDS011;5924;51.398;7.088;2024-01-11T04:16:40;50.10;;;18.33;;
11735;SDS011;5924;51.398;7.088;2024-01-11T04:19:09;48.10;;;19.43;;
11735;SDS011;5924;51.398;7.088;2024-01-11T04:21:35;49.33;;;19.10;;
11735;SDS011;5924;51.398;7.088;2024-01-11T04:24:03;47.00;;;19.20;;
11735;SDS011;5924;51.398;7.088;2024-01-11T04:26:30;53.40;;;19.23;;
11735;SDS011;5924;51.398;7.088;2024-01-11T04:28:56;51.37;;;20.27;;
11735;SDS011;5924;51.398;7.088;2024-01-11T04:31:23;42.28;;;17.30;;
11735;SDS011;5924;51.398;7.088;2024-01-11T04:33:49;49.60;;;18.63;;
11735;SDS011;5924;51.398;7.088;2024-01-11T04:36:14;50.67;;;18.93;;
11735;SDS011;5924;51.398;7.088;2024-01-11T04:38:40;52.10;;;20.90;;
11735;SDS011;5924;51.398;7.088;2024-01-11T04:41:09;60.07;;;19.93;;
11735;SDS011;5924;51.398;7.088;2024-01-11T04:43:39;45.47;;;20.15;;
11735;SDS011;5924;51.398;7.088;2024-01-11T04:46:19;50.25;;;20.33;;
11735;SDS011;5924;51.398;7.088;2024-01-11T04:48:45;42.28;;;16.83;;
11735;SDS011;5924;51.398;7.088;2024-01-11T04:51:12;40.85;;;18.00;;
11735;SDS011;5924;51.398;7.088;2024-01-11T04:53:42;60.53;;;18.85;;
11735;SDS011;5924;51.398;7.088;2024-01-11T04:56:09;44.35;;;18.10;;
11735;SDS011;5924;51.398;7.088;2024-01-11T04:58:36;48.60;;;18.77;;
11735;SDS011;5924;51.398;7.088;2024-01-11T05:01:03;53.03;;;20.27;;
11735;SDS011;5924;51.398;7.088;2024-01-11T05:03:29;43.40;;;19.33;;
11735;SDS011;5924;51.398;7.088;2024-01-11T05:05:56;43.85;;;18.42;;
11735;SDS011;5924;51.398;7.088;2024-01-11T05:08:22;54.42;;;19.73;;
11735;SDS011;5924;51.398;7.088;2024-01-11T05:10:48;54.78;;;19.95;;
11735;SDS011;5924;51.398;7.088;2024-01-11T05:13:14;44.70;;;18.10;;
11735;SDS011;5924;51.398;7.088;2024-01-11T05:15:40;42.13;;;17.20;;
11735;SDS011;5924;51.398;7.088;2024-01-11T05:18:06;52.20;;;19.10;;
11735;SDS011;5924;51.398;7.088;2024-01-11T05:20:31;47.87;;;19.43;;
11735;SDS011;5924;51.398;7.088;2024-01-11T05:22:57;50.67;;;19.07;;
11735;SDS011;5924;51.398;7.088;2024-01-11T05:25:23;54.03;;;19.43;;
11735;SDS011;5924;51.398;7.088;2024-01-11T05:27:48;51.97;;;18.80;;
11735;SDS011;5924;51.398;7.088;2024-01-11T05:30:14;48.27;;;19.97;;
11735;SDS011;5924;51.398;7.088;2024-01-11T05:32:39;76.30;;;23.60;;
11735;SDS011;5924;51.398;7.088;2024-01-11T05:35:05;52.33;;;20.50;;
11735;SDS011;5924;51.398;7.088;2024-01-11T05:37:31;58.73;;;21.13;;
11735;SDS011;5924;51.398;7.088;2024-01-11T05:39:56;49.67;;;20.60;;
11735;SDS011;5924;51.398;7.088;2024-01-11T05:42:23;53.37;;;21.33;;
11735;SDS011;5924;51.398;7.088;2024-01-11T05:44:48;60.35;;;20.55;;
11735;SDS011;5924;51.398;7.088;2024-01-11T05:47:15;49.75;;;20.63;;
11735;SDS011;5924;51.398;7.088;2024-01-11T05:49:40;53.17;;;21.50;;
11735;SDS011;5924;51.398;7.088;2024-01-11T05:52:06;60.33;;;21.80;;
11735;SDS011;5924;51.398;7.088;2024-01-11T05:54:32;52.73;;;19.83;;
11735;SDS011;5924;51.398;7.088;2024-01-11T05:56:57;60.77;;;22.20;;
11735;SDS011;5924;51.398;7.088;2024-01-11T05:59:24;63.40;;;22.45;;
11735;SDS011;5924;51.398;7.088;2024-01-11T06:01:50;61.17;;;23.00;;
11735;SDS011;5924;51.398;7.088;2024-01-11T06:04:16;62.63;;;23.80;;
11735;SDS011;5924;51.398;7.088;2024-01-11T06:06:41;61.33;;;24.63;;
11735;SDS011;5924;51.398;7.088;2024-01-11T06:09:07;56.03;;;24.53;;
11735;SDS011;5924;51.398;7.088;2024-01-11T06:11:33;54.77;;;23.30;;
11735;SDS011;5924;51.398;7.088;2024-01-11T06:13:59;58.90;;;23.83;;
11735;SDS011;5924;51.398;7.088;2024-01-11T06:16:26;61.58;;;21.23;;
11735;SDS011;5924;51.398;7.088;2024-01-11T06:18:52;69.77;;;23.30;;
11735;SDS011;5924;51.398;7.088;2024-01-11T06:21:17;70.67;;;24.73;;
11735;SDS011;5924;51.398;7.088;2024-01-11T06:23:43;81.53;;;27.80;;
11735;SDS011;5924;51.398;7.088;2024-01-11T06:26:09;68.83;;;26.00;;
11735;SDS011;5924;51.398;7.088;2024-01-11T06:28:35;73.97;;;23.33;;
11735;SDS011;5924;51.398;7.088;2024-01-11T06:31:00;64.63;;;24.17;;
11735;SDS011;5924;51.398;7.088;2024-01-11T06:33:26;59.40;;;21.83;;
11735;SDS011;5924;51.398;7.088;2024-01-11T06:35:52;68.27;;;25.37;;
11735;SDS011;5924;51.398;7.088;2024-01-11T06:38:18;62.03;;;23.40;;
11735;SDS011;5924;51.398;7.088;2024-01-11T06:40:43;61.60;;;24.60;;
11735;SDS011;5924;51.398;7.088;2024-01-11T06:43:09;82.20;;;28.50;;
11735;SDS011;5924;51.398;7.088;2024-01-11T06:45:34;70.30;;;27.70;;
11735;SDS011;5924;51.398;7.088;2024-01-11T06:48:00;75.23;;;27.43;;
11735;SDS011;5924;51.398;7.088;2024-01-11T06:50:26;71.10;;;25.80;;
11735;SDS011;5924;51.398;7.088;2024-01-11T06:52:52;59.60;;;23.80;;
11735;SDS011;5924;51.398;7.088;2024-01-11T06:55:17;66.03;;;24.67;;
11735;SDS011;5924;51.398;7.088;2024-01-11T06:57:46;86.73;;;25.40;;
11735;SDS011;5924;51.398;7.088;2024-01-11T07:00:13;54.70;;;21.92;;
11735;SDS011;5924;51.398;7.088;2024-01-11T07:02:38;62.27;;;24.23;;
11735;SDS011;5924;51.398;7.088;2024-01-11T07:05:05;74.85;;;26.83;;
11735;SDS011;5924;51.398;7.088;2024-01-11T07:07:31;61.47;;;23.48;;
11735;SDS011;5924;51.398;7.088;2024-01-11T07:09:57;65.13;;;24.15;;
11735;SDS011;5924;51.398;7.088;2024-01-11T07:12:23;57.73;;;22.90;;
11735;SDS011;5924;51.398;7.088;2024-01-11T07:14:49;68.47;;;25.30;;
11735;SDS011;5924;51.398;7.088;2024-01-11T07:17:15;78.27;;;24.37;;
11735;SDS011;5924;51.398;7.088;2024-01-11T07:19:40;65.33;;;25.13;;
11735;SDS011;5924;51.398;7.088;2024-01-11T07:22:06;73.60;;;24.63;;
11735;SDS011;5924;51.398;7.088;2024-01-11T07:24:32;67.10;;;28.10;;
11735;SDS011;5924;51.398;7.088;2024-01-11T07:27:03;63.70;;;23.88;;
11735;SDS011;5924;51.398;7.088;2024-01-11T07:29:32;73.78;;;22.35;;
11735;SDS011;5924;51.398;7.088;2024-01-11T07:31:59;52.67;;;22.67;;
11735;SDS011;5924;51.398;7.088;2024-01-11T07:34:25;52.95;;;22.08;;
11735;SDS011;5924;51.398;7.088;2024-01-11T07:36:52;68.00;;;24.23;;
11735;SDS011;5924;51.398;7.088;2024-01-11T07:39:17;64.85;;;22.17;;
11735;SDS011;5924;51.398;7.088;2024-01-11T07:41:43;59.30;;;21.37;;
11735;SDS011;5924;51.398;7.088;2024-01-11T07:44:09;66.70;;;23.80;;
11735;SDS011;5924;51.398;7.088;2024-01-11T07:46:34;66.93;;;23.87;;
11735;SDS011;5924;51.398;7.088;2024-01-11T07:49:01;64.43;;;23.92;;
11735;SDS011;5924;51.398;7.088;2024-01-11T07:51:30;68.30;;;25.48;;
11735;SDS011;5924;51.398;7.088;2024-01-11T07:53:55;64.40;;;23.00;;
11735;SDS011;5924;51.398;7.088;2024-01-11T07:56:21;61.50;;;22.47;;
11735;SDS011;5924;51.398;7.088;2024-01-11T07:58:47;61.80;;;23.10;;
11735;SDS011;5924;51.398;7.088;2024-01-11T08:01:13;79.70;;;24.57;;
11735;SDS011;5924;51.398;7.088;2024-01-11T08:03:41;71.07;;;22.75;;
11735;SDS011;5924;51.398;7.088;2024-01-11T08:06:06;65.40;;;22.73;;
11735;SDS011;5924;51.398;7.088;2024-01-11T08:08:33;63.08;;;23.10;;
11735;SDS011;5924;51.398;7.088;2024-01-11T08:10:59;59.30;;;22.55;;
11735;SDS011;5924;51.398;7.088;2024-01-11T08:13:24;66.27;;;24.40;;
11735;SDS011;5924;51.398;7.088;2024-01-11T08:15:50;80.77;;;25.37;;
11735;SDS011;5924;51.398;7.088;2024-01-11T08:18:18;66.83;;;23.23;;
11735;SDS011;5924;51.398;7.088;2024-01-11T08:20:44;76.78;;;25.45;;
11735;SDS011;5924;51.398;7.088;2024-01-11T08:23:09;80.17;;;26.33;;
11735;SDS011;5924;51.398;7.088;2024-01-11T08:25:35;68.83;;;26.53;;
11735;SDS011;5924;51.398;7.088;2024-01-11T08:28:01;62.03;;;22.40;;
11735;SDS011;5924;51.398;7.088;2024-01-11T08:30:28;64.38;;;24.13;;
11735;SDS011;5924;51.398;7.088;2024-01-11T08:32:54;68.70;;;24.60;;
11735;SDS011;5924;51.398;7.088;2024-01-11T08:35:20;67.75;;;25.55;;
11735;SDS011;5924;51.398;7.088;2024-01-11T08:37:46;63.43;;;24.60;;
11735;SDS011;5924;51.398;7.088;2024-01-11T08:40:12;75.37;;;24.43;;
11735;SDS011;5924;51.398;7.088;2024-01-11T08:42:38;66.80;;;24.37;;
11735;SDS011;5924;51.398;7.088;2024-01-11T08:45:05;66.35;;;26.02;;
11735;SDS011;5924;51.398;7.088;2024-01-11T08:47:32;77.05;;;27.38;;
11735;SDS011;5924;51.398;7.088;2024-01-11T08:50:03;81.20;;;23.65;;
11735;SDS011;5924;51.398;7.088;2024-01-11T08:52:31;60.88;;;23.85;;
11735;SDS011;5924;51.398;7.088;2024-01-11T08:54:58;65.68;;;25.30;;
11735;SDS011;5924;51.398;7.088;2024-01-11T08:57:23;65.33;;;23.67;;
11735;SDS011;5924;51.398;7.088;2024-01-11T08:59:49;64.27;;;25.00;;
11735;SDS011;5924;51.398;7.088;2024-01-11T09:02:14;75.03;;;27.07;;
11735;SDS011;5924;51.398;7.088;2024-01-11T09:04:40;64.67;;;23.87;;
11735;SDS011;5924;51.398;7.088;2024-01-11T09:07:06;68.20;;;25.83;;
11735;SDS011;5924;51.398;7.088;2024-01-11T09:09:32;67.53;;;25.83;;
11735;SDS011;5924;51.398;7.088;2024-01-11T09:11:57;58.97;;;23.00;;
11735;SDS011;5924;51.398;7.088;2024-01-11T09:14:23;64.50;;;25.53;;
11735;SDS011;5924;51.398;7.088;2024-01-11T09:16:48;63.60;;;24.60;;
11735;SDS011;5924;51.398;7.088;2024-01-11T09:19:15;80.05;;;27.63;;
11735;SDS011;5924;51.398;7.088;2024-01-11T09:21:41;79.90;;;26.67;;
11735;SDS011;5924;51.398;7.088;2024-01-11T09:24:07;84.20;;;26.60;;
11735;SDS011;5924;51.398;7.088;2024-01-11T09:26:33;74.57;;;28.57;;
11735;SDS011;5924;51.398;7.088;2024-01-11T09:28:58;80.10;;;27.70;;
11735;SDS011;5924;51.398;7.088;2024-01-11T09:31:24;68.20;;;26.77;;
11735;SDS011;5924;51.398;7.088;2024-01-11T09:33:50;78.00;;;27.70;;
11735;SDS011;5924;51.398;7.088;2024-01-11T09:36:15;80.90;;;28.30;;
11735;SDS011;5924;51.398;7.088;2024-01-11T09:38:41;78.40;;;28.60;;
11735;SDS011;5924;51.398;7.088;2024-01-11T09:41:08;85.63;;;28.27;;
11735;SDS011;5924;51.398;7.088;2024-01-11T09:43:34;71.33;;;29.73;;
11735;SDS011;5924;51.398;7.088;2024-01-11T09:46:03;77.30;;;28.97;;
11735;SDS011;5924;51.398;7.088;2024-01-11T09:48:33;76.93;;;28.20;;
11735;SDS011;5924;51.398;7.088;2024-01-11T09:51:03;75.68;;;30.55;;
11735;SDS011;5924;51.398;7.088;2024-01-11T09:53:35;88.10;;;31.17;;
11735;SDS011;5924;51.398;7.088;2024-01-11T09:56:03;84.93;;;30.10;;
11735;SDS011;5924;51.398;7.088;2024-01-11T09:58:34;71.60;;;28.50;;
11735;SDS011;5924;51.398;7.088;2024-01-11T10:01:03;81.30;;;31.07;;
11735;SDS011;5924;51.398;7.088;2024-01-11T10:03:34;79.97;;;31.83;;
11735;SDS011;5924;51.398;7.088;2024-01-11T10:06:00;78.00;;;30.43;;
11735;SDS011;5924;51.398;7.088;2024-01-11T10:08:27;100.80;;;33.40;;
11735;SDS011;5924;51.398;7.088;2024-01-11T10:10:55;87.37;;;30.90;;
11735;SDS011;5924;51.398;7.088;2024-01-11T10:13:25;93.20;;;31.03;;
11735;SDS011;5924;51.398;7.088;2024-01-11T10:16:16;83.67;;;28.73;;
11735;SDS011;5924;51.398;7.088;2024-01-11T10:18:41;77.97;;;30.93;;
11735;SDS011;5924;51.398;7.088;2024-01-11T10:21:07;76.23;;;28.53;;
11735;SDS011;5924;51.398;7.088;2024-01-11T10:23:34;72.37;;;28.83;;
11735;SDS011;5924;51.398;7.088;2024-01-11T10:26:01;76.83;;;29.80;;
11735;SDS011;5924;51.398;7.088;2024-01-11T10:28:27;79.70;;;31.10;;
11735;SDS011;5924;51.398;7.088;2024-01-11T10:30:53;78.40;;;32.90;;
11735;SDS011;5924;51.398;7.088;2024-01-11T10:33:20;78.00;;;29.00;;
11735;SDS011;5924;51.398;7.088;2024-01-11T10:35:47;76.63;;;29.77;;
11735;SDS011;5924;51.398;7.088;2024-01-11T10:38:16;74.33;;;30.13;;
11735;SDS011;5924;51.398;7.088;2024-01-11T10:40:44;78.73;;;28.40;;
11735;SDS011;5924;51.398;7.088;2024-01-11T10:43:10;80.93;;;29.67;;
11735;SDS011;5924;51.398;7.088;2024-01-11T10:45:37;80.23;;;32.70;;
11735;SDS011;5924;51.398;7.088;2024-01-11T10:48:15;75.53;;;30.17;;
11735;SDS011;5924;51.398;7.088;2024-01-11T10:50:45;82.07;;;31.77;;
11735;SDS011;5924;51.398;7.088;2024-01-11T10:56:00;70.97;;;30.63;;
11735;SDS011;5924;51.398;7.088;2024-01-11T10:58:28;80.17;;;31.63;;
11735;SDS011;5924;51.398;7.088;2024-01-11T11:00:55;66.23;;;28.13;;
11735;SDS011;5924;51.398;7.088;2024-01-11T11:03:25;63.43;;;28.87;;
11735;SDS011;5924;51.398;7.088;2024-01-11T11:05:53;78.63;;;28.50;;
11735;SDS011;5924;51.398;7.088;2024-01-11T11:08:21;73.73;;;29.20;;
11735;SDS011;5924;51.398;7.088;2024-01-11T11:10:49;66.80;;;27.33;;
11735;SDS011;5924;51.398;7.088;2024-01-11T11:13:19;62.60;;;26.43;;
11735;SDS011;5924;51.398;7.088;2024-01-11T11:15:46;69.20;;;27.87;;
11735;SDS011;5924;51.398;7.088;2024-01-11T11:18:14;65.77;;;27.40;;
11735;SDS011;5924;51.398;7.088;2024-01-11T11:20:41;65.23;;;26.57;;
11735;SDS011;5924;51.398;7.088;2024-01-11T11:23:08;59.23;;;25.60;;
11735;SDS011;5924;51.398;7.088;2024-01-11T11:25:42;58.60;;;25.60;;
11735;SDS011;5924;51.398;7.088;2024-01-11T11:28:11;60.00;;;26.77;;
11735;SDS011;5924;51.398;7.088;2024-01-11T11:30:38;56.97;;;25.33;;
11735;SDS011;5924;51.398;7.088;2024-01-11T11:33:16;64.23;;;25.13;;
11735;SDS011;5924;51.398;7.088;2024-01-11T11:35:42;61.97;;;26.50;;
11735;SDS011;5924;51.398;7.088;2024-01-11T11:38:08;56.00;;;25.23;;
11735;SDS011;5924;51.398;7.088;2024-01-11T11:40:43;59.90;;;26.33;;
11735;SDS011;5924;51.398;7.088;2024-01-11T11:43:11;64.47;;;24.80;;
11735;SDS011;5924;51.398;7.088;2024-01-11T11:45:36;61.40;;;25.40;;
11735;SDS011;5924;51.398;7.088;2024-01-11T11:48:49;66.20;;;24.90;;
11735;SDS011;5924;51.398;7.088;2024-01-11T11:53:39;51.30;;;23.10;;
11735;SDS011;5924;51.398;7.088;2024-01-11T11:56:05;60.73;;;24.57;;
11735;SDS011;5924;51.398;7.088;2024-01-11T11:58:32;64.00;;;27.40;;
11735;SDS011;5924;51.398;7.088;2024-01-11T12:00:59;55.50;;;23.90;;
11735;SDS011;5924;51.398;7.088;2024-01-11T12:03:28;58.10;;;24.83;;
11735;SDS011;5924;51.398;7.088;2024-01-11T12:05:59;52.87;;;23.57;;
11735;SDS011;5924;51.398;7.088;2024-01-11T12:08:25;51.60;;;22.80;;
11735;SDS011;5924;51.398;7.088;2024-01-11T12:10:51;54.73;;;22.30;;
11735;SDS011;5924;51.398;7.088;2024-01-11T12:13:17;47.57;;;22.60;;
11735;SDS011;5924;51.398;7.088;2024-01-11T12:15:43;54.97;;;24.57;;
11735;SDS011;5924;51.398;7.088;2024-01-11T12:18:09;55.67;;;23.50;;
11735;SDS011;5924;51.398;7.088;2024-01-11T12:20:35;49.30;;;20.63;;
11735;SDS011;5924;51.398;7.088;2024-01-11T12:23:00;48.90;;;22.40;;
11735;SDS011;5924;51.398;7.088;2024-01-11T12:25:30;56.10;;;23.63;;
11735;SDS011;5924;51.398;7.088;2024-01-11T12:27:56;61.70;;;25.13;;
11735;SDS011;5924;51.398;7.088;2024-01-11T12:30:23;58.43;;;23.97;;
11735;SDS011;5924;51.398;7.088;2024-01-11T12:32:50;50.67;;;22.80;;
11735;SDS011;5924;51.398;7.088;2024-01-11T12:35:16;64.77;;;25.30;;
11735;SDS011;5924;51.398;7.088;2024-01-11T12:40:33;59.80;;;23.90;;
11735;SDS011;5924;51.398;7.088;2024-01-11T12:43:00;69.37;;;25.80;;
11735;SDS011;5924;51.398;7.088;2024-01-11T12:45:26;56.20;;;25.03;;
11735;SDS011;5924;51.398;7.088;2024-01-11T12:47:52;56.10;;;23.37;;
11735;SDS011;5924;51.398;7.088;2024-01-11T12:50:19;53.67;;;24.47;;
11735;SDS011;5924;51.398;7.088;2024-01-11T12:52:45;55.50;;;23.50;;
11735;SDS011;5924;51.398;7.088;2024-01-11T12:55:18;51.67;;;24.20;;
11735;SDS011;5924;51.398;7.088;2024-01-11T12:57:45;53.90;;;24.47;;
11735;SDS011;5924;51.398;7.088;2024-01-11T13:00:11;53.73;;;23.20;;
11735;SDS011;5924;51.398;7.088;2024-01-11T13:02:39;48.57;;;23.47;;
11735;SDS011;5924;51.398;7.088;2024-01-11T13:05:05;48.33;;;23.10;;
11735;SDS011;5924;51.398;7.088;2024-01-11T13:07:32;48.60;;;21.80;;
11735;SDS011;5924;51.398;7.088;2024-01-11T13:09:58;48.73;;;21.33;;
11735;SDS011;5924;51.398;7.088;2024-01-11T13:12:24;56.17;;;22.50;;
11735;SDS011;5924;51.398;7.088;2024-01-11T13:14:50;56.10;;;21.70;;
11735;SDS011;5924;51.398;7.088;2024-01-11T13:17:17;55.20;;;22.00;;
11735;SDS011;5924;51.398;7.088;2024-01-11T13:19:43;46.50;;;21.50;;
11735;SDS011;5924;51.398;7.088;2024-01-11T13:22:10;53.20;;;20.37;;
11735;SDS011;5924;51.398;7.088;2024-01-11T13:24:35;48.00;;;20.33;;
11735;SDS011;5924;51.398;7.088;2024-01-11T13:27:01;41.53;;;19.50;;
11735;SDS011;5924;51.398;7.088;2024-01-11T13:29:27;43.60;;;18.50;;
11735;SDS011;5924;51.398;7.088;2024-01-11T13:31:52;40.83;;;20.20;;
11735;SDS011;5924;51.398;7.088;2024-01-11T13:34:18;38.70;;;19.13;;
11735;SDS011;5924;51.398;7.088;2024-01-11T13:36:44;46.47;;;18.57;;
11735;SDS011;5924;51.398;7.088;2024-01-11T13:39:10;37.33;;;18.97;;
11735;SDS011;5924;51.398;7.088;2024-01-11T13:41:36;38.97;;;17.70;;
11735;SDS011;5924;51.398;7.088;2024-01-11T13:44:01;51.33;;;17.93;;
11735;SDS011;5924;51.398;7.088;2024-01-11T13:46:30;48.40;;;16.90;;
11735;SDS011;5924;51.398;7.088;2024-01-11T13:48:56;37.97;;;17.33;;
11735;SDS011;5924;51.398;7.088;2024-01-11T13:51:23;38.03;;;15.83;;
11735;SDS011;5924;51.398;7.088;2024-01-11T13:53:48;29.77;;;14.87;;
11735;SDS011;5924;51.398;7.088;2024-01-11T13:56:14;39.43;;;15.43;;
11735;SDS011;5924;51.398;7.088;2024-01-11T13:58:39;29.87;;;14.67;;
11735;SDS011;5924;51.398;7.088;2024-01-11T14:01:05;32.80;;;14.43;;
11735;SDS011;5924;51.398;7.088;2024-01-11T14:03:32;34.37;;;15.33;;
11735;SDS011;5924;51.398;7.088;2024-01-11T14:05:58;42.73;;;15.80;;
11735;SDS011;5924;51.398;7.088;2024-01-11T14:08:25;36.03;;;15.27;;
11735;SDS011;5924;51.398;7.088;2024-01-11T14:10:51;27.33;;;14.40;;
11735;SDS011;5924;51.398;7.088;2024-01-11T14:13:18;30.43;;;16.07;;
11735;SDS011;5924;51.398;7.088;2024-01-11T14:15:43;27.03;;;13.70;;
11735;SDS011;5924;51.398;7.088;2024-01-11T14:18:09;32.47;;;15.03;;
11735;SDS011;5924;51.398;7.088;2024-01-11T14:20:35;32.53;;;15.40;;
11735;SDS011;5924;51.398;7.088;2024-01-11T14:23:01;39.97;;;16.80;;
11735;SDS011;5924;51.398;7.088;2024-01-11T14:25:27;31.00;;;15.73;;
11735;SDS011;5924;51.398;7.088;2024-01-11T14:27:54;29.03;;;14.07;;
11735;SDS011;5924;51.398;7.088;2024-01-11T14:30:21;25.27;;;14.50;;
11735;SDS011;5924;51.398;7.088;2024-01-11T14:32:47;32.10;;;14.10;;
11735;SDS011;5924;51.398;7.088;2024-01-11T14:35:14;29.73;;;15.00;;
11735;SDS011;5924;51.398;7.088;2024-01-11T14:37:40;38.93;;;16.60;;